Time,TemperatureF,DewpointF,PressureIn,WindDirection,WindDirectionDegrees,WindSpeedMPH,WindSpeedGustMPH,Humidity,HourlyPrecipIn,Conditions,Clouds,dailyrainin,SoftwareType,DateUTC
2013-02-28 00:08:00,58.5,50.6,29.76,NW,315,2.2,-999.0,75,-99.99,,,0.00,Acu-Link.com,2013-02-28 05:08:00,
2013-02-28 00:23:00,58.3,50.4,29.77,West,270,2.7,-999.0,75,-99.99,,,0.00,Acu-Link.com,2013-02-28 05:23:00,
2013-02-28 00:38:00,58.3,50.4,29.77,NNW,337,4.7,-999.0,75,-99.99,,,0.00,Acu-Link.com,2013-02-28 05:38:00,
2013-02-28 00:54:00,58.1,50.2,29.78,West,270,2.7,-999.0,75,-99.99,,,0.00,Acu-Link.com,2013-02-28 05:54:00,
2013-02-28 01:09:00,58.1,50.2,29.77,NW,315,0.0,-999.0,75,-99.99,,,0.00,Acu-Link.com,2013-02-28 06:09:00,
2013-02-28 01:24:00,58.1,50.6,29.77,SSW,202,2.7,-999.0,76,-99.99,,,0.00,Acu-Link.com,2013-02-28 06:24:00,
2013-02-28 01:39:00,58.1,50.2,29.77,NE,45,2.2,-999.0,75,-99.99,,,0.00,Acu-Link.com,2013-02-28 06:39:00,
2013-02-28 01:55:00,57.9,50.4,29.77,WNW,292,2.2,-999.0,76,-99.99,,,0.00,Acu-Link.com,2013-02-28 06:55:00,
2013-02-28 02:10:00,57.6,50.1,29.77,SW,225,0.0,-999.0,76,-99.99,,,0.00,Acu-Link.com,2013-02-28 07:10:00,
2013-02-28 02:25:00,57.0,49.9,29.76,NNW,337,1.7,-999.0,77,-99.99,,,0.00,Acu-Link.com,2013-02-28 07:25:00,
2013-02-28 02:40:00,56.7,50.3,29.76,SSE,157,0.0,-999.0,79,-99.99,,,0.00,Acu-Link.com,2013-02-28 07:40:00,
2013-02-28 02:56:00,56.5,50.1,29.76,ESE,112,1.1,-999.0,79,-99.99,,,0.00,Acu-Link.com,2013-02-28 07:56:00,
2013-02-28 03:11:00,56.3,50.2,29.76,NNW,337,1.7,-999.0,80,-99.99,,,0.00,Acu-Link.com,2013-02-28 08:11:00,
2013-02-28 03:26:00,56.1,50.3,29.75,West,270,0.0,-999.0,81,-99.99,,,0.00,Acu-Link.com,2013-02-28 08:26:00,
2013-02-28 03:41:00,55.9,50.5,29.75,SW,225,0.0,-999.0,82,-99.99,,,0.00,Acu-Link.com,2013-02-28 08:41:00,
2013-02-28 03:56:00,55.8,50.7,29.75,NW,315,1.1,-999.0,83,-99.99,,,0.00,Acu-Link.com,2013-02-28 08:56:00,
2013-02-28 04:19:00,56.3,52.8,29.75,NNW,337,1.7,-999.0,88,-99.99,,,0.00,Acu-Link.com,2013-02-28 09:19:00,
2013-02-28 04:34:00,55.4,50.6,29.76,West,270,1.1,-999.0,84,-99.99,,,0.00,Acu-Link.com,2013-02-28 09:34:00,
2013-02-28 04:49:00,55.2,51.1,29.74,East,90,0.0,-999.0,86,-99.99,,,0.00,Acu-Link.com,2013-02-28 09:49:00,
2013-02-28 05:05:00,54.7,50.6,29.75,WNW,292,0.0,-999.0,86,-99.99,,,0.00,Acu-Link.com,2013-02-28 10:05:00,
2013-02-28 05:20:00,54.9,50.8,29.78,West,270,0.0,-999.0,86,-99.99,,,0.00,Acu-Link.com,2013-02-28 10:20:00,
2013-02-28 05:35:00,55.4,51.3,29.78,West,270,2.2,-999.0,86,-99.99,,,0.00,Acu-Link.com,2013-02-28 10:35:00,
2013-02-28 05:50:00,55.6,51.5,29.79,West,270,1.7,-999.0,86,-99.99,,,0.00,Acu-Link.com,2013-02-28 10:50:00,
2013-02-28 06:05:00,55.4,51.3,29.77,East,90,0.0,-999.0,86,-99.99,,,0.00,Acu-Link.com,2013-02-28 11:05:00,
2013-02-28 06:20:00,55.8,51.7,29.77,ESE,112,0.0,-999.0,86,-99.99,,,0.00,Acu-Link.com,2013-02-28 11:20:00,
2013-02-28 06:36:00,55.4,51.0,29.77,ESE,112,0.0,-999.0,85,-99.99,,,0.00,Acu-Link.com,2013-02-28 11:36:00,
2013-02-28 06:51:00,55.4,51.3,29.78,West,270,0.0,-999.0,86,-99.99,,,0.00,Acu-Link.com,2013-02-28 11:51:00,
2013-02-28 07:07:00,55.9,51.8,29.79,South,180,0.0,-999.0,86,-99.99,,,0.00,Acu-Link.com,2013-02-28 12:07:00,
2013-02-28 07:22:00,56.5,52.4,29.80,East,90,0.0,-999.0,86,-99.99,,,0.00,Acu-Link.com,2013-02-28 12:22:00,
2013-02-28 07:37:00,57.4,52.9,29.80,NE,45,0.0,-999.0,85,-99.99,,,0.00,Acu-Link.com,2013-02-28 12:37:00,
2013-02-28 07:53:00,57.9,52.8,29.80,NNW,337,1.1,-999.0,83,-99.99,,,0.00,Acu-Link.com,2013-02-28 12:53:00,
2013-02-28 08:08:00,59.4,53.6,29.81,SSE,157,0.0,-999.0,81,-99.99,,,0.00,Acu-Link.com,2013-02-28 13:08:00,
2013-02-28 08:23:00,61.2,54.3,29.81,WSW,247,0.0,-999.0,78,-99.99,,,0.00,Acu-Link.com,2013-02-28 13:23:00,
2013-02-28 08:38:00,60.1,52.9,29.82,NE,45,0.0,-999.0,77,-99.99,,,0.00,Acu-Link.com,2013-02-28 13:38:00,
2013-02-28 08:54:00,63.0,53.8,29.82,SE,135,1.1,-999.0,72,-99.99,,,0.00,Acu-Link.com,2013-02-28 13:54:00,
2013-02-28 09:09:00,64.6,55.0,29.83,SSE,157,2.7,-999.0,71,-99.99,,,0.00,Acu-Link.com,2013-02-28 14:09:00,
2013-02-28 09:24:00,65.1,53.9,29.83,WSW,247,2.7,-999.0,67,-99.99,,,0.00,Acu-Link.com,2013-02-28 14:24:00,
2013-02-28 09:39:00,69.3,55.7,29.83,South,180,2.7,-999.0,62,-99.99,,,0.00,Acu-Link.com,2013-02-28 14:39:00,
2013-02-28 09:55:00,68.5,53.6,29.82,NE,45,1.7,-999.0,59,-99.99,,,0.00,Acu-Link.com,2013-02-28 14:55:00,
2013-02-28 10:10:00,69.1,54.2,29.83,SE,135,2.2,-999.0,59,-99.99,,,0.00,Acu-Link.com,2013-02-28 15:10:00,
2013-02-28 10:25:00,70.5,55.0,29.82,West,270,3.2,-999.0,58,-99.99,,,0.00,Acu-Link.com,2013-02-28 15:25:00,
2013-02-28 10:41:00,70.2,53.3,29.82,North,0,4.2,-999.0,55,-99.99,,,0.00,Acu-Link.com,2013-02-28 15:41:00,
2013-02-28 10:56:00,72.3,54.7,29.81,SSE,157,1.7,-999.0,54,-99.99,,,0.00,Acu-Link.com,2013-02-28 15:56:00,
2013-02-28 11:11:00,74.3,56.0,29.82,SE,135,1.1,-999.0,53,-99.99,,,0.00,Acu-Link.com,2013-02-28 16:11:00,
2013-02-28 11:26:00,73.0,54.3,29.80,North,0,1.7,-999.0,52,-99.99,,,0.00,Acu-Link.com,2013-02-28 16:26:00,
2013-02-28 11:42:00,74.7,54.8,29.79,SSE,157,2.7,-999.0,50,-99.99,,,0.00,Acu-Link.com,2013-02-28 16:42:00,
2013-02-28 11:57:00,75.4,54.9,29.79,NNE,22,1.1,-999.0,49,-99.99,,,0.00,Acu-Link.com,2013-02-28 16:57:00,
2013-02-28 12:12:00,76.1,53.2,29.78,North,0,2.2,-999.0,45,-99.99,,,0.00,Acu-Link.com,2013-02-28 17:12:00,
2013-02-28 12:27:00,74.7,54.3,29.77,NNW,337,8.9,-999.0,49,-99.99,,,0.00,Acu-Link.com,2013-02-28 17:27:00,
2013-02-28 12:43:00,77.4,56.7,29.77,South,180,2.2,-999.0,49,-99.99,,,0.00,Acu-Link.com,2013-02-28 17:43:00,
2013-02-28 12:58:00,75.9,55.4,29.76,NE,45,4.2,-999.0,49,-99.99,,,0.00,Acu-Link.com,2013-02-28 17:58:00,
2013-02-28 13:13:00,77.5,55.1,29.75,West,270,4.2,-999.0,46,-99.99,,,0.00,Acu-Link.com,2013-02-28 18:13:00,
2013-02-28 13:28:00,77.0,55.2,29.74,NNE,22,2.7,-999.0,47,-99.99,,,0.00,Acu-Link.com,2013-02-28 18:28:00,
2013-02-28 13:44:00,74.3,53.9,29.73,West,270,4.7,-999.0,49,-99.99,,,0.00,Acu-Link.com,2013-02-28 18:44:00,
2013-02-28 13:59:00,77.5,54.5,29.72,WNW,292,6.8,-999.0,45,-99.99,,,0.00,Acu-Link.com,2013-02-28 18:59:00,
2013-02-28 14:14:00,77.7,54.6,29.72,West,270,3.2,-999.0,45,-99.99,,,0.00,Acu-Link.com,2013-02-28 19:14:00,
2013-02-28 14:29:00,77.7,52.8,29.71,WNW,292,4.7,-999.0,42,-99.99,,,0.00,Acu-Link.com,2013-02-28 19:29:00,
2013-02-28 14:44:00,78.4,55.3,29.70,West,270,3.7,-999.0,45,-99.99,,,0.00,Acu-Link.com,2013-02-28 19:44:00,
2013-02-28 14:59:00,76.3,54.0,29.71,WSW,247,4.2,-999.0,46,-99.99,,,0.00,Acu-Link.com,2013-02-28 19:59:00,
2013-02-28 15:15:00,76.1,52.6,29.70,ENE,67,5.3,-999.0,44,-99.99,,,0.00,Acu-Link.com,2013-02-28 20:15:00,
2013-02-28 15:30:00,76.6,54.3,29.69,SSE,157,2.2,-999.0,46,-99.99,,,0.00,Acu-Link.com,2013-02-28 20:30:00,
2013-02-28 15:45:00,75.2,53.6,29.69,NW,315,1.7,-999.0,47,-99.99,,,0.00,Acu-Link.com,2013-02-28 20:45:00,
2013-02-28 16:00:00,75.7,52.8,29.69,WSW,247,3.2,-999.0,45,-99.99,,,0.00,Acu-Link.com,2013-02-28 21:00:00,
2013-02-28 16:16:00,75.4,50.7,29.69,NNW,337,3.7,-999.0,42,-99.99,,,0.00,Acu-Link.com,2013-02-28 21:16:00,
2013-02-28 16:31:00,74.7,50.1,29.69,NNE,22,4.7,-999.0,42,-99.99,,,0.00,Acu-Link.com,2013-02-28 21:31:00,
2013-02-28 16:46:00,74.1,48.9,29.68,West,270,8.3,-999.0,41,-99.99,,,0.00,Acu-Link.com,2013-02-28 21:46:00,
2013-02-28 17:01:00,73.6,49.7,29.67,West,270,3.7,-999.0,43,-99.99,,,0.00,Acu-Link.com,2013-02-28 22:01:00,
2013-02-28 17:17:00,73.2,50.0,29.68,WNW,292,5.3,-999.0,44,-99.99,,,0.00,Acu-Link.com,2013-02-28 22:17:00,
2013-02-28 17:32:00,72.7,49.5,29.67,North,0,1.7,-999.0,44,-99.99,,,0.00,Acu-Link.com,2013-02-28 22:32:00,
2013-02-28 17:47:00,70.5,48.1,29.68,ENE,67,4.2,-999.0,45,-99.99,,,0.00,Acu-Link.com,2013-02-28 22:47:00,
2013-02-28 18:02:00,69.4,48.8,29.69,NW,315,3.2,-999.0,48,-99.99,,,0.00,Acu-Link.com,2013-02-28 23:02:00,
2013-02-28 18:18:00,68.7,48.8,29.70,East,90,6.3,-999.0,49,-99.99,,,0.00,Acu-Link.com,2013-02-28 23:18:00,
2013-02-28 18:33:00,67.8,48.5,29.69,North,0,4.2,-999.0,50,-99.99,,,0.00,Acu-Link.com,2013-02-28 23:33:00,
2013-02-28 18:48:00,67.3,50.1,29.70,North,0,2.2,-999.0,54,-99.99,,,0.00,Acu-Link.com,2013-02-28 23:48:00,
2013-02-28 19:03:00,66.7,50.0,29.70,West,270,3.2,-999.0,55,-99.99,,,0.00,Acu-Link.com,2013-03-01 00:03:00,
2013-02-28 19:18:00,66.4,50.7,29.71,North,0,2.2,-999.0,57,-99.99,,,0.00,Acu-Link.com,2013-03-01 00:18:00,
2013-02-28 19:34:00,66.2,51.0,29.72,WNW,292,3.2,-999.0,58,-99.99,,,0.00,Acu-Link.com,2013-03-01 00:34:00,
2013-02-28 19:49:00,65.5,51.2,29.72,West,270,4.2,-999.0,60,-99.99,,,0.00,Acu-Link.com,2013-03-01 00:49:00,
2013-02-28 20:04:00,64.6,50.8,29.72,South,180,4.7,-999.0,61,-99.99,,,0.00,Acu-Link.com,2013-03-01 01:04:00,
2013-02-28 20:19:00,64.0,51.6,29.73,West,270,4.2,-999.0,64,-99.99,,,0.00,Acu-Link.com,2013-03-01 01:19:00,
2013-02-28 20:35:00,63.3,51.7,29.73,WSW,247,5.8,-999.0,66,-99.99,,,0.00,Acu-Link.com,2013-03-01 01:35:00,
2013-02-28 20:50:00,62.6,51.9,29.74,South,180,4.7,-999.0,68,-99.99,,,0.00,Acu-Link.com,2013-03-01 01:50:00,
2013-02-28 21:05:00,61.9,52.0,29.74,West,270,3.7,-999.0,70,-99.99,,,0.00,Acu-Link.com,2013-03-01 02:05:00,
2013-02-28 21:21:00,61.3,51.8,29.74,SE,135,3.2,-999.0,71,-99.99,,,0.00,Acu-Link.com,2013-03-01 02:21:00,
2013-02-28 21:36:00,60.8,50.6,29.74,SW,225,2.7,-999.0,69,-99.99,,,0.00,Acu-Link.com,2013-03-01 02:36:00,
2013-02-28 21:51:00,60.3,50.9,29.75,West,270,4.2,-999.0,71,-99.99,,,0.00,Acu-Link.com,2013-03-01 02:51:00,
2013-02-28 22:06:00,59.7,50.7,29.75,NW,315,3.2,-999.0,72,-99.99,,,0.00,Acu-Link.com,2013-03-01 03:06:00,
2013-02-28 22:22:00,59.7,50.7,29.76,SSW,202,2.2,-999.0,72,-99.99,,,0.00,Acu-Link.com,2013-03-01 03:22:00,
2013-02-28 22:37:00,59.0,50.0,29.76,West,270,6.3,-999.0,72,-99.99,,,0.00,Acu-Link.com,2013-03-01 03:37:00,
2013-02-28 22:52:00,58.8,49.4,29.75,West,270,2.2,-999.0,71,-99.99,,,0.00,Acu-Link.com,2013-03-01 03:52:00,
2013-02-28 23:08:00,58.6,49.6,29.76,West,270,2.7,-999.0,72,-99.99,,,0.00,Acu-Link.com,2013-03-01 04:08:00,
2013-02-28 23:23:00,58.5,49.5,29.76,SSW,202,2.7,-999.0,72,-99.99,,,0.00,Acu-Link.com,2013-03-01 04:23:00,
2013-02-28 23:38:00,58.1,49.1,29.76,NNE,22,3.2,-999.0,72,-99.99,,,0.00,Acu-Link.com,2013-03-01 04:38:00,
2013-02-28 23:53:00,58.1,48.7,29.76,WSW,247,4.2,-999.0,71,-99.99,,,0.00,Acu-Link.com,2013-03-01 04:53:00,